Ridgebury Alina L — V7NX7 — position and weather

sailwx.info

Track history (hours):
 
Tides and Currents Weather Stations Pressure Air Temp Water Temp Dewpoint Dewpoint Depression Visibility Wind Speed Wind Dir Waves Ship Positions

Ridgebury Alina L

Last reported at 2017-Oct-19 16:00 UTC. Time now 2017-Oct-19 16:12 UTC.
Position N 51°42' W 005°03'.

Length 274 m; draft 14.7 m.

Type: Tanker. MMSI: 538003037.

Date/timePositionNaut miles runAvg speedWind from/ knotsBaromVisibWave heightAir tempDewpointWater temp
2017-Oct-19 16:00N 51°42' W 005°03'0 0.0
2017-Oct-19 15:30N 51°42' W 005°03'0 0.0
2017-Oct-19 15:00N 51°42' W 005°03'0 0.0
2017-Oct-19 14:30N 51°42' W 005°03'0 0.0
2017-Oct-19 14:00N 51°42' W 005°03'0 0.0
2017-Oct-19 13:30N 51°42' W 005°03'0 0.0
2017-Oct-19 13:00N 51°42' W 005°03'0 0.0
2017-Oct-19 12:30N 51°42' W 005°03'0 0.0
2017-Oct-19 12:00N 51°42' W 005°03'0 0.0
2017-Oct-19 11:30N 51°42' W 005°03'0 0.0
2017-Oct-19 11:00N 51°42' W 005°03'0 0.0
2017-Oct-19 10:30N 51°42' W 005°03'0 0.0
2017-Oct-19 10:00N 51°42' W 005°03'0 0.0
2017-Oct-19 09:30N 51°42' W 005°03'0 0.0
2017-Oct-19 08:57N 51°42' W 005°03'0 0.0
2017-Oct-19 08:30N 51°42' W 005°03'0 0.0
2017-Oct-19 08:00N 51°42' W 005°03'0 0.0
2017-Oct-19 07:30N 51°42' W 005°03'0 0.0
2017-Oct-19 07:00N 51°42' W 005°03'0 0.0
2017-Oct-19 06:30N 51°42' W 005°03'0 0.0
2017-Oct-19 06:00N 51°42' W 005°03'0 0.0
2017-Oct-19 05:30N 51°42' W 005°03'0 0.0
2017-Oct-19 05:00N 51°42' W 005°03'0 0.0
2017-Oct-19 04:30N 51°42' W 005°03'0 0.0
2017-Oct-19 04:00N 51°42' W 005°03'0 0.0
2017-Oct-19 03:30N 51°42' W 005°03'0 0.0
2017-Oct-19 03:00N 51°42' W 005°03'0 0.0
2017-Oct-19 02:30N 51°42' W 005°03'0 0.0
2017-Oct-19 02:00N 51°42' W 005°03'0 0.0
2017-Oct-19 01:30N 51°42' W 005°03'0 0.0
2017-Oct-19 01:00N 51°42' W 005°03'0 0.0
2017-Oct-19 00:30N 51°42' W 005°03'0 0.0
2017-Oct-19 00:00N 51°42' W 005°03'0 0.0
2017-Oct-18 23:30N 51°42' W 005°03'0 0.0
2017-Oct-18 23:00N 51°42' W 005°03'0 0.0
2017-Oct-18 22:30N 51°42' W 005°03'0 0.0
2017-Oct-18 22:00N 51°42' W 005°03'0 0.0
2017-Oct-18 21:30N 51°42' W 005°03'0 0.0
2017-Oct-18 21:00N 51°42' W 005°03'0 0.0
2017-Oct-18 20:30N 51°42' W 005°03'0 0.0
2017-Oct-18 20:00N 51°42' W 005°03'0 0.0
2017-Oct-18 19:30N 51°42' W 005°03'0 0.0
2017-Oct-18 19:00N 51°42' W 005°03'0 0.0
2017-Oct-18 18:30N 51°42' W 005°03'0 0.0
2017-Oct-18 18:00N 51°42' W 005°03'0 0.0
2017-Oct-18 17:30N 51°42' W 005°03'0 0.0
2017-Oct-18 17:00N 51°42' W 005°03'0 0.0
2017-Oct-18 16:30N 51°42' W 005°03'0 0.0
2017-Oct-18 16:00N 51°42' W 005°03'0 0.0
2017-Oct-18 15:30N 51°42' W 005°03'0 0.0
2017-Oct-18 15:00N 51°42' W 005°03'0 0.0
2017-Oct-18 14:00N 51°42' W 005°03'0 0.0
2017-Oct-18 13:30N 51°42' W 005°03'0 0.0
2017-Oct-18 13:00N 51°42' W 005°03'0 0.0
2017-Oct-18 12:30N 51°42' W 005°03'0 0.0
2017-Oct-18 12:00N 51°42' W 005°03'0 0.0
2017-Oct-18 11:30N 51°42' W 005°03'0 0.0
2017-Oct-18 11:00N 51°42' W 005°03'0 0.0
2017-Oct-18 10:30N 51°42' W 005°03'0 0.0
2017-Oct-18 10:00N 51°42' W 005°03'0 0.0
2017-Oct-18 09:30N 51°42' W 005°03'0 0.0
2017-Oct-18 09:00N 51°42' W 005°03'0 0.0
2017-Oct-18 08:30N 51°42' W 005°03'0 0.0
2017-Oct-18 08:00N 51°42' W 005°03'0 0.0
2017-Oct-18 07:30N 51°42' W 005°03'0 0.0
2017-Oct-18 07:00N 51°42' W 005°03'0 0.0
2017-Oct-18 06:30N 51°42' W 005°03'0 0.0
2017-Oct-18 06:00N 51°42' W 005°03'0 0.0
2017-Oct-18 05:30N 51°42' W 005°03'0 0.0
2017-Oct-18 05:01N 51°42' W 005°03'1 1.8
2017-Oct-18 04:30N 51°42' W 005°04'4 7.1
2017-Oct-18 04:01N 51°41' W 005°10'5 9.9
2017-Oct-18 03:30N 51°37' W 005°13'3 5.1
2017-Oct-18 03:00N 51°34' W 005°15'3 5.7
2017-Oct-18 02:30N 51°31' W 005°15'712.9
2017-Oct-18 02:00N 51°25' W 005°16'712.3
2017-Oct-18 01:27N 51°18' W 005°14'1 2.5
2017-Oct-18 01:00N 51°17' W 005°14'1 1.3
2017-Oct-18 00:30N 51°17' W 005°15'1 1.0
2017-Oct-18 00:00N 51°17' W 005°15'0 0.7
2017-Oct-17 23:30N 51°17' W 005°16'0 0.6
2017-Oct-17 23:00N 51°17' W 005°16'0 0.7
2017-Oct-17 22:30N 51°18' W 005°16'0 0.7
2017-Oct-17 22:00N 51°18' W 005°16'0 0.6
2017-Oct-17 21:30N 51°18' W 005°16'0 0.6
2017-Oct-17 21:00N 51°18' W 005°16'0 0.7
2017-Oct-17 20:30N 51°19' W 005°15'0 0.7
2017-Oct-17 19:59N 51°19' W 005°15'0 0.7
2017-Oct-17 19:30N 51°19' W 005°14'0 0.6
2017-Oct-17 19:00N 51°19' W 005°14'0 0.3
2017-Oct-17 18:30N 51°19' W 005°14'0 0.2
2017-Oct-17 18:00N 51°19' W 005°13'0 0.2
2017-Oct-17 17:31N 51°19' W 005°14'0 0.5
2017-Oct-17 17:01N 51°19' W 005°14'0 0.8
2017-Oct-17 16:31N 51°19' W 005°15'1 1.1
2017-Oct-17 16:00N 51°19' W 005°15'1 1.4
2017-Oct-17 15:30N 51°19' W 005°17'1 1.7
2017-Oct-17 15:00N 51°19' W 005°18'1 1.8
2017-Oct-17 14:30N 51°19' W 005°19'1 2.0
2017-Oct-17 14:00N 51°19' W 005°21'1 2.1
2017-Oct-17 13:29N 51°19' W 005°23'1 2.3
2017-Oct-17 12:59N 51°19' W 005°24'2 3.6
2017-Oct-17 12:30N 51°21' W 005°23'6 4.4
2017-Oct-17 11:11N 51°26' W 005°20'1 3.3
2017-Oct-17 11:01N 51°26' W 005°20'3 5.5
2017-Oct-17 10:29N 51°23' W 005°23'5 0.6
2017-Oct-17 01:48N 51°27' W 005°18'2 8.1
2017-Oct-17 01:30N 51°26' W 005°20'17 4.0
2017-Oct-16 21:14N 51°15' W 005°41'5 4.3
2017-Oct-16 19:58N 51°16' W 005°33'2 4.6
2017-Oct-16 19:30N 51°17' W 005°30'3 4.0
2017-Oct-16 18:47N 51°17' W 005°25'1 4.2
2017-Oct-16 18:30N 51°17' W 005°23'2 3.3
2017-Oct-16 18:00N 51°17' W 005°21'2 3.3
2017-Oct-16 17:30N 51°17' W 005°18'2 3.1
2017-Oct-16 16:59N 51°17' W 005°15'1 2.5
2017-Oct-16 16:30N 51°16' W 005°14'1 2.3
2017-Oct-16 15:55N 51°17' W 005°11'1 1.9
2017-Oct-16 15:27N 51°17' W 005°10'1 1.1
2017-Oct-16 14:59N 51°18' W 005°10'1 1.2
2017-Oct-16 13:51N 51°19' W 005°08'0 0.8
2017-Oct-16 13:23N 51°19' W 005°08'0 0.5
2017-Oct-16 13:00N 51°19' W 005°08'0 0.4
2017-Oct-16 12:30N 51°19' W 005°08'1 1.6
2017-Oct-16 11:47N 51°20' W 005°10'0 1.6
2017-Oct-16 11:31N 51°20' W 005°10'1 1.4
2017-Oct-16 11:00N 51°20' W 005°11'1 2.0
2017-Oct-16 10:30N 51°21' W 005°12'1 2.5
2017-Oct-16 10:00N 51°22' W 005°13'1 2.9
2017-Oct-16 09:31N 51°23' W 005°14'2 3.0
2017-Oct-16 09:00N 51°25' W 005°15'2 3.4
2017-Oct-16 08:30N 51°26' W 005°16'2 3.3
2017-Oct-16 08:00N 51°28' W 005°17'1 2.0
2017-Oct-16 07:31N 51°29' W 005°17'0 0.1
2017-Oct-16 07:00N 51°29' W 005°17'0 0.0
2017-Oct-16 06:30N 51°29' W 005°17'0 0.1
2017-Oct-16 06:00N 51°29' W 005°17'0 0.0
2017-Oct-16 05:30N 51°29' W 005°17'0 0.0
2017-Oct-16 05:00N 51°29' W 005°17'0 0.0
2017-Oct-16 04:30N 51°29' W 005°17'0 0.0
2017-Oct-16 04:00N 51°29' W 005°17'0 0.1
2017-Oct-16 03:30N 51°29' W 005°17'0 0.1
2017-Oct-16 03:00N 51°29' W 005°17'0 0.2
2017-Oct-16 02:30N 51°29' W 005°17'0 0.1
2017-Oct-16 02:00N 51°29' W 005°17'0 0.2
2017-Oct-16 01:15N 51°29' W 005°17'0 0.1
2017-Oct-16 00:54N 51°29' W 005°17'0 0.0
2017-Oct-16 00:30N 51°29' W 005°17'0 0.1
2017-Oct-16 00:00N 51°29' W 005°17'0 0.0
2017-Oct-15 23:24N 51°29' W 005°17'0 0.0
2017-Oct-15 21:48N 51°29' W 005°17'0 0.1
2017-Oct-15 21:24N 51°29' W 005°17'0 0.1
2017-Oct-15 21:00N 51°29' W 005°17'0 0.1
2017-Oct-15 20:24N 51°29' W 005°17'0 0.1
2017-Oct-15 19:57N 51°29' W 005°17'0 0.1
2017-Oct-15 19:30N 51°29' W 005°17'0 0.2
2017-Oct-15 19:00N 51°29' W 005°17'0 0.1
2017-Oct-15 18:30N 51°29' W 005°17'0 0.0
2017-Oct-15 18:00N 51°29' W 005°17'0 0.0
2017-Oct-15 17:30N 51°29' W 005°17'0 0.1
2017-Oct-15 17:00N 51°29' W 005°17'0 0.0
2017-Oct-15 16:30N 51°29' W 005°17'0 0.0
2017-Oct-15 16:00N 51°29' W 005°17'0 0.0
2017-Oct-15 15:27N 51°29' W 005°17'0 0.1
2017-Oct-15 15:00N 51°29' W 005°17'0 0.1
2017-Oct-15 14:00N 51°29' W 005°17'0 0.1
2017-Oct-15 13:24N 51°29' W 005°17'0 0.1
2017-Oct-15 13:00N 51°29' W 005°17'0 0.1
2017-Oct-15 12:18N 51°29' W 005°17'0 0.1
2017-Oct-15 12:00N 51°29' W 005°17'0 0.1
2017-Oct-15 11:30N 51°29' W 005°17'0 0.0
2017-Oct-15 11:00N 51°29' W 005°17'0 0.0
2017-Oct-15 09:48N 51°29' W 005°17'0 0.1
2017-Oct-15 09:30N 51°29' W 005°17'0 0.1
2017-Oct-15 08:48N 51°29' W 005°17'0 0.1
2017-Oct-15 08:30N 51°29' W 005°17'0 0.0
2017-Oct-15 08:00N 51°29' W 005°17'0 0.0
2017-Oct-15 07:21N 51°29' W 005°17'0 0.2
2017-Oct-15 06:54N 51°29' W 005°17'0 0.2
2017-Oct-15 06:30N 51°29' W 005°17'0 0.1
2017-Oct-15 06:00N 51°29' W 005°17'0 0.0
2017-Oct-15 05:30N 51°29' W 005°17'0 0.0
2017-Oct-15 05:00N 51°29' W 005°17'0 0.0
2017-Oct-15 04:30N 51°29' W 005°17'0 0.1
2017-Oct-15 04:00N 51°29' W 005°17'0 0.0
2017-Oct-15 03:30N 51°29' W 005°17'0 0.0
2017-Oct-15 02:57N 51°29' W 005°17'0 0.1
2017-Oct-15 02:30N 51°29' W 005°17'0 0.1
2017-Oct-15 02:00N 51°29' W 005°17'0 0.1
2017-Oct-15 01:30N 51°29' W 005°17'0 0.1
2017-Oct-14 23:57N 51°29' W 005°17'0 0.1
2017-Oct-14 23:30N 51°29' W 005°17'0 0.1
2017-Oct-14 23:00N 51°29' W 005°17'0 0.0
2017-Oct-14 22:30N 51°29' W 005°17'0 0.0
2017-Oct-14 21:51N 51°29' W 005°17'0 0.0
2017-Oct-14 21:12N 51°29' W 005°17'0 0.1
2017-Oct-14 20:57N 51°29' W 005°17'0 0.0
2017-Oct-14 20:18N 51°29' W 005°17'0 0.1
2017-Oct-14 20:00N 51°29' W 005°17'0 0.1
2017-Oct-14 19:27N 51°29' W 005°17'0 0.0
2017-Oct-14 19:00N 51°29' W 005°17'0 0.0
2017-Oct-14 18:27N 51°29' W 005°17'0 0.2
2017-Oct-14 17:57N 51°29' W 005°17'0 0.2
2017-Oct-14 17:24N 51°29' W 005°17'0 0.1
2017-Oct-14 17:00N 51°29' W 005°17'0 0.0
2017-Oct-14 16:30N 51°29' W 005°17'0 0.0
2017-Oct-14 15:57N 51°29' W 005°17'0 0.1
2017-Oct-14 15:21N 51°29' W 005°17'0 0.0
2017-Oct-14 15:00N 51°29' W 005°17'0 0.1
2017-Oct-14 14:30N 51°29' W 005°17'0 0.1
2017-Oct-14 13:57N 51°29' W 005°17'0 0.1
2017-Oct-14 13:30N 51°29' W 005°17'0 0.1
2017-Oct-14 12:33N 51°29' W 005°17'0 0.0
2017-Oct-14 11:48N 51°29' W 005°17'0 0.1
2017-Oct-14 11:27N 51°29' W 005°17'0 0.1
2017-Oct-14 11:00N 51°29' W 005°17'0 0.0
2017-Oct-14 10:30N 51°29' W 005°17'0 0.0
2017-Oct-14 08:33N 51°29' W 005°17'0 0.1
2017-Oct-14 08:21N 51°29' W 005°17'0 0.0
2017-Oct-14 07:54N 51°29' W 005°17'0 0.1
2017-Oct-14 07:15N 51°29' W 005°17'0 0.0
2017-Oct-14 06:57N 51°29' W 005°17'0 0.0
2017-Oct-14 06:27N 51°29' W 005°17'0 0.1
2017-Oct-14 06:00N 51°29' W 005°17'0 0.1
2017-Oct-14 04:42N 51°29' W 005°17'0 0.2
2017-Oct-14 04:30N 51°29' W 005°17'0 0.1
2017-Oct-14 04:00N 51°29' W 005°17'0 0.1
2017-Oct-14 03:27N 51°29' W 005°17'0 0.0
2017-Oct-14 03:00N 51°29' W 005°17'0 0.0
2017-Oct-14 02:30N 51°29' W 005°17'0 0.0
2017-Oct-14 02:00N 51°29' W 005°17'0 0.0
2017-Oct-14 01:30N 51°29' W 005°17'0 0.1
2017-Oct-14 00:06N 51°29' W 005°17'0 0.1
2017-Oct-14 00:00N 51°29' W 005°17'0 0.0
2017-Oct-13 23:24N 51°29' W 005°17'0 0.1
2017-Oct-13 23:00N 51°29' W 005°17'0 0.1
2017-Oct-13 22:27N 51°29' W 005°17'0 0.1
2017-Oct-13 21:54N 51°29' W 005°17'0 0.0
2017-Oct-13 21:24N 51°29' W 005°17'0 0.0
2017-Oct-13 21:00N 51°29' W 005°17'0 0.0
2017-Oct-13 20:30N 51°29' W 005°17'0 0.0
2017-Oct-13 20:00N 51°29' W 005°17'0 0.0
2017-Oct-13 19:24N 51°29' W 005°17'0 0.1
2017-Oct-13 19:00N 51°29' W 005°17'0 0.0
2017-Oct-13 18:12N 51°29' W 005°17'0 0.0
2017-Oct-13 17:57N 51°29' W 005°17'0 0.0
2017-Oct-13 17:30N 51°29' W 005°17'0 0.0
2017-Oct-13 15:33N 51°29' W 005°17'0 0.1
2017-Oct-13 15:24N 51°29' W 005°17'0 0.0
2017-Oct-13 14:18N 51°29' W 005°17'0 0.1
2017-Oct-13 14:00N 51°29' W 005°17'0 0.0
2017-Oct-13 13:30N 51°29' W 005°17'0 0.1
2017-Oct-13 13:00N 51°29' W 005°17'0 0.0
2017-Oct-13 10:00N 51°29' W 005°17'0 0.1
2017-Oct-13 09:30N 51°29' W 005°17'0 0.1
2017-Oct-13 09:00N 51°29' W 005°17'0 0.0
2017-Oct-13 08:27N 51°29' W 005°17'0 0.0
2017-Oct-13 07:54N 51°29' W 005°17'0 0.0
2017-Oct-13 07:18N 51°29' W 005°17'0 0.0
2017-Oct-13 06:48N 51°29' W 005°17'0 0.0
2017-Oct-13 06:30N 51°29' W 005°17'0 0.0
2017-Oct-13 05:57N 51°29' W 005°17'0 0.0
2017-Oct-13 05:30N 51°29' W 005°17'0 0.1
2017-Oct-13 03:42N 51°29' W 005°17'0 0.1
2017-Oct-13 03:30N 51°29' W 005°17'0 0.1
2017-Oct-13 03:00N 51°29' W 005°17'0 0.1
2017-Oct-13 02:27N 51°29' W 005°17'0 0.0
2017-Oct-13 02:00N 51°29' W 005°17'0 0.0
2017-Oct-13 01:30N 51°29' W 005°17'0 0.0
2017-Oct-13 01:00N 51°29' W 005°17'0 0.1
2017-Oct-13 00:30N 51°29' W 005°17'0 0.1
2017-Oct-13 00:00N 51°29' W 005°17'0 0.0
2017-Oct-12 23:30N 51°29' W 005°17'0 0.1
2017-Oct-12 23:00N 51°29' W 005°17'0 0.1
2017-Oct-12 21:00N 51°29' W 005°17'0 0.1
2017-Oct-12 20:30N 51°29' W 005°17'0 0.1
2017-Oct-12 20:00N 51°29' W 005°17'0 0.0
2017-Oct-12 19:30N 51°29' W 005°17'0 0.0
2017-Oct-12 18:48N 51°29' W 005°17'0 0.0
2017-Oct-12 18:30N 51°29' W 005°17'0 0.1
2017-Oct-12 18:00N 51°29' W 005°17'0 0.0
2017-Oct-12 15:24N 51°29' W 005°17'0 0.2
2017-Oct-12 14:54N 51°29' W 005°17'0 0.1
2017-Oct-12 14:30N 51°29' W 005°17'0 0.1
2017-Oct-12 14:00N 51°29' W 005°17'0 0.0
2017-Oct-12 13:27N 51°29' W 005°17'0 0.0
2017-Oct-12 12:51N 51°29' W 005°17'0 0.0
2017-Oct-12 12:30N 51°29' W 005°17'0 0.1
2017-Oct-12 11:54N 51°29' W 005°17'0 0.1
2017-Oct-12 11:30N 51°29' W 005°17'0 0.1
2017-Oct-12 11:00N 51°29' W 005°17'0 0.1
2017-Oct-12 10:11N 51°29' W 005°17'1 3.4
2017-Oct-12 10:00N 51°29' W 005°18'4 7.2
2017-Oct-12 09:30N 51°28' W 005°23'1 2.0
2017-Oct-12 09:00N 51°28' W 005°21'1 1.5
2017-Oct-12 08:31N 51°28' W 005°23'1 1.7
2017-Oct-12 08:01N 51°28' W 005°24'1 1.9
2017-Oct-12 07:30N 51°29' W 005°25'1 2.0
2017-Oct-12 07:01N 51°29' W 005°26'1 2.1
2017-Oct-12 06:31N 51°30' W 005°28'1 2.1
2017-Oct-12 06:00N 51°31' W 005°29'1 2.0
2017-Oct-12 05:31N 51°31' W 005°30'1 1.9
2017-Oct-12 05:01N 51°32' W 005°31'1 1.6
2017-Oct-12 04:31N 51°33' W 005°32'1 1.4
2017-Oct-12 04:01N 51°33' W 005°32'1 1.1
2017-Oct-12 03:30N 51°34' W 005°33'0 0.8
2017-Oct-12 03:00N 51°34' W 005°33'0 0.5
2017-Oct-12 02:31N 51°34' W 005°34'0 0.2
2017-Oct-12 02:00N 51°34' W 005°34'0 0.2
2017-Oct-12 01:31N 51°34' W 005°34'0 0.4
2017-Oct-12 01:01N 51°34' W 005°34'0 0.5
2017-Oct-12 00:31N 51°34' W 005°34'0 0.6
2017-Oct-12 00:01N 51°34' W 005°34'0 0.6
2017-Oct-11 23:31N 51°33' W 005°34'0 0.6
2017-Oct-11 23:00N 51°33' W 005°34'0 0.6
2017-Oct-11 22:30N 51°33' W 005°35'0 0.8
2017-Oct-11 22:01N 51°33' W 005°35'1 1.1
2017-Oct-11 21:31N 51°33' W 005°36'1 1.1
2017-Oct-11 21:00N 51°33' W 005°37'3 4.8
2017-Oct-11 20:28N 51°31' W 005°34'4 8.1
2017-Oct-11 20:00N 51°29' W 005°29'6 6.1
2017-Oct-11 18:58N 51°26' W 005°21'2 4.3
2017-Oct-11 18:28N 51°26' W 005°17'1 1.9
2017-Oct-11 17:58N 51°26' W 005°16'1 2.6
2017-Oct-11 17:30N 51°27' W 005°17'1 2.7
2017-Oct-11 17:00N 51°28' W 005°19'  
Track history (hours):
 
Tides and Currents Weather Stations Pressure Air Temp Water Temp Dewpoint Dewpoint Depression Visibility Wind Speed Wind Dir Waves Ship Positions

Ridgebury Alina L

Last reported at 2017-Oct-19 16:00 UTC. Time now 2017-Oct-19 16:12 UTC.
Position N 51°42' W 005°03'.

Length 274 m; draft 14.7 m.

Type: Tanker. MMSI: 538003037.

Date/timePositionNaut miles runAvg speedWind from/ knotsBaromVisibWave heightAir tempDewpointWater temp
2017-Oct-19 16:00N 51°42' W 005°03'0 0.0
2017-Oct-19 15:30N 51°42' W 005°03'0 0.0
2017-Oct-19 15:00N 51°42' W 005°03'0 0.0
2017-Oct-19 14:30N 51°42' W 005°03'0 0.0
2017-Oct-19 14:00N 51°42' W 005°03'0 0.0
2017-Oct-19 13:30N 51°42' W 005°03'0 0.0
2017-Oct-19 13:00N 51°42' W 005°03'0 0.0
2017-Oct-19 12:30N 51°42' W 005°03'0 0.0
2017-Oct-19 12:00N 51°42' W 005°03'0 0.0
2017-Oct-19 11:30N 51°42' W 005°03'0 0.0
2017-Oct-19 11:00N 51°42' W 005°03'0 0.0
2017-Oct-19 10:30N 51°42' W 005°03'0 0.0
2017-Oct-19 10:00N 51°42' W 005°03'0 0.0
2017-Oct-19 09:30N 51°42' W 005°03'0 0.0
2017-Oct-19 08:57N 51°42' W 005°03'0 0.0
2017-Oct-19 08:30N 51°42' W 005°03'0 0.0
2017-Oct-19 08:00N 51°42' W 005°03'0 0.0
2017-Oct-19 07:30N 51°42' W 005°03'0 0.0
2017-Oct-19 07:00N 51°42' W 005°03'0 0.0
2017-Oct-19 06:30N 51°42' W 005°03'0 0.0
2017-Oct-19 06:00N 51°42' W 005°03'0 0.0
2017-Oct-19 05:30N 51°42' W 005°03'0 0.0
2017-Oct-19 05:00N 51°42' W 005°03'0 0.0
2017-Oct-19 04:30N 51°42' W 005°03'0 0.0
2017-Oct-19 04:00N 51°42' W 005°03'0 0.0
2017-Oct-19 03:30N 51°42' W 005°03'0 0.0
2017-Oct-19 03:00N 51°42' W 005°03'0 0.0
2017-Oct-19 02:30N 51°42' W 005°03'0 0.0
2017-Oct-19 02:00N 51°42' W 005°03'0 0.0
2017-Oct-19 01:30N 51°42' W 005°03'0 0.0
2017-Oct-19 01:00N 51°42' W 005°03'0 0.0
2017-Oct-19 00:30N 51°42' W 005°03'0 0.0
2017-Oct-19 00:00N 51°42' W 005°03'0 0.0
2017-Oct-18 23:30N 51°42' W 005°03'0 0.0
2017-Oct-18 23:00N 51°42' W 005°03'0 0.0
2017-Oct-18 22:30N 51°42' W 005°03'0 0.0
2017-Oct-18 22:00N 51°42' W 005°03'0 0.0
2017-Oct-18 21:30N 51°42' W 005°03'0 0.0
2017-Oct-18 21:00N 51°42' W 005°03'0 0.0
2017-Oct-18 20:30N 51°42' W 005°03'0 0.0
2017-Oct-18 20:00N 51°42' W 005°03'0 0.0
2017-Oct-18 19:30N 51°42' W 005°03'0 0.0
2017-Oct-18 19:00N 51°42' W 005°03'0 0.0
2017-Oct-18 18:30N 51°42' W 005°03'0 0.0
2017-Oct-18 18:00N 51°42' W 005°03'0 0.0
2017-Oct-18 17:30N 51°42' W 005°03'0 0.0
2017-Oct-18 17:00N 51°42' W 005°03'0 0.0
2017-Oct-18 16:30N 51°42' W 005°03'0 0.0
2017-Oct-18 16:00N 51°42' W 005°03'0 0.0
2017-Oct-18 15:30N 51°42' W 005°03'0 0.0
2017-Oct-18 15:00N 51°42' W 005°03'0 0.0
2017-Oct-18 14:00N 51°42' W 005°03'0 0.0
2017-Oct-18 13:30N 51°42' W 005°03'0 0.0
2017-Oct-18 13:00N 51°42' W 005°03'0 0.0
2017-Oct-18 12:30N 51°42' W 005°03'0 0.0
2017-Oct-18 12:00N 51°42' W 005°03'0 0.0
2017-Oct-18 11:30N 51°42' W 005°03'0 0.0
2017-Oct-18 11:00N 51°42' W 005°03'0 0.0
2017-Oct-18 10:30N 51°42' W 005°03'0 0.0
2017-Oct-18 10:00N 51°42' W 005°03'0 0.0
2017-Oct-18 09:30N 51°42' W 005°03'0 0.0
2017-Oct-18 09:00N 51°42' W 005°03'0 0.0
2017-Oct-18 08:30N 51°42' W 005°03'0 0.0
2017-Oct-18 08:00N 51°42' W 005°03'0 0.0
2017-Oct-18 07:30N 51°42' W 005°03'0 0.0
2017-Oct-18 07:00N 51°42' W 005°03'0 0.0
2017-Oct-18 06:30N 51°42' W 005°03'0 0.0
2017-Oct-18 06:00N 51°42' W 005°03'0 0.0
2017-Oct-18 05:30N 51°42' W 005°03'0 0.0
2017-Oct-18 05:01N 51°42' W 005°03'1 1.8
2017-Oct-18 04:30N 51°42' W 005°04'4 7.1
2017-Oct-18 04:01N 51°41' W 005°10'5 9.9
2017-Oct-18 03:30N 51°37' W 005°13'3 5.1
2017-Oct-18 03:00N 51°34' W 005°15'3 5.7
2017-Oct-18 02:30N 51°31' W 005°15'712.9
2017-Oct-18 02:00N 51°25' W 005°16'712.3
2017-Oct-18 01:27N 51°18' W 005°14'1 2.5
2017-Oct-18 01:00N 51°17' W 005°14'1 1.3
2017-Oct-18 00:30N 51°17' W 005°15'1 1.0
2017-Oct-18 00:00N 51°17' W 005°15'0 0.7
2017-Oct-17 23:30N 51°17' W 005°16'0 0.6
2017-Oct-17 23:00N 51°17' W 005°16'0 0.7
2017-Oct-17 22:30N 51°18' W 005°16'0 0.7
2017-Oct-17 22:00N 51°18' W 005°16'0 0.6
2017-Oct-17 21:30N 51°18' W 005°16'0 0.6
2017-Oct-17 21:00N 51°18' W 005°16'0 0.7
2017-Oct-17 20:30N 51°19' W 005°15'0 0.7
2017-Oct-17 19:59N 51°19' W 005°15'0 0.7
2017-Oct-17 19:30N 51°19' W 005°14'0 0.6
2017-Oct-17 19:00N 51°19' W 005°14'0 0.3
2017-Oct-17 18:30N 51°19' W 005°14'0 0.2
2017-Oct-17 18:00N 51°19' W 005°13'0 0.2
2017-Oct-17 17:31N 51°19' W 005°14'0 0.5
2017-Oct-17 17:01N 51°19' W 005°14'0 0.8
2017-Oct-17 16:31N 51°19' W 005°15'1 1.1
2017-Oct-17 16:00N 51°19' W 005°15'1 1.4
2017-Oct-17 15:30N 51°19' W 005°17'1 1.7
2017-Oct-17 15:00N 51°19' W 005°18'1 1.8
2017-Oct-17 14:30N 51°19' W 005°19'1 2.0
2017-Oct-17 14:00N 51°19' W 005°21'1 2.1
2017-Oct-17 13:29N 51°19' W 005°23'1 2.3
2017-Oct-17 12:59N 51°19' W 005°24'2 3.6
2017-Oct-17 12:30N 51°21' W 005°23'6 4.4
2017-Oct-17 11:11N 51°26' W 005°20'1 3.3
2017-Oct-17 11:01N 51°26' W 005°20'3 5.5
2017-Oct-17 10:29N 51°23' W 005°23'5 0.6
2017-Oct-17 01:48N 51°27' W 005°18'2 8.1
2017-Oct-17 01:30N 51°26' W 005°20'17 4.0
2017-Oct-16 21:14N 51°15' W 005°41'5 4.3
2017-Oct-16 19:58N 51°16' W 005°33'2 4.6
2017-Oct-16 19:30N 51°17' W 005°30'3 4.0
2017-Oct-16 18:47N 51°17' W 005°25'1 4.2
2017-Oct-16 18:30N 51°17' W 005°23'2 3.3
2017-Oct-16 18:00N 51°17' W 005°21'2 3.3
2017-Oct-16 17:30N 51°17' W 005°18'2 3.1
2017-Oct-16 16:59N 51°17' W 005°15'1 2.5
2017-Oct-16 16:30N 51°16' W 005°14'1 2.3
2017-Oct-16 15:55N 51°17' W 005°11'1 1.9
2017-Oct-16 15:27N 51°17' W 005°10'1 1.1
2017-Oct-16 14:59N 51°18' W 005°10'1 1.2
2017-Oct-16 13:51N 51°19' W 005°08'0 0.8
2017-Oct-16 13:23N 51°19' W 005°08'0 0.5
2017-Oct-16 13:00N 51°19' W 005°08'0 0.4
2017-Oct-16 12:30N 51°19' W 005°08'1 1.6
2017-Oct-16 11:47N 51°20' W 005°10'0 1.6
2017-Oct-16 11:31N 51°20' W 005°10'1 1.4
2017-Oct-16 11:00N 51°20' W 005°11'1 2.0
2017-Oct-16 10:30N 51°21' W 005°12'1 2.5
2017-Oct-16 10:00N 51°22' W 005°13'1 2.9
2017-Oct-16 09:31N 51°23' W 005°14'2 3.0
2017-Oct-16 09:00N 51°25' W 005°15'2 3.4
2017-Oct-16 08:30N 51°26' W 005°16'2 3.3
2017-Oct-16 08:00N 51°28' W 005°17'1 2.0
2017-Oct-16 07:31N 51°29' W 005°17'0 0.1
2017-Oct-16 07:00N 51°29' W 005°17'0 0.0
2017-Oct-16 06:30N 51°29' W 005°17'0 0.1
2017-Oct-16 06:00N 51°29' W 005°17'0 0.0
2017-Oct-16 05:30N 51°29' W 005°17'0 0.0
2017-Oct-16 05:00N 51°29' W 005°17'0 0.0
2017-Oct-16 04:30N 51°29' W 005°17'0 0.0
2017-Oct-16 04:00N 51°29' W 005°17'0 0.1
2017-Oct-16 03:30N 51°29' W 005°17'0 0.1
2017-Oct-16 03:00N 51°29' W 005°17'0 0.2
2017-Oct-16 02:30N 51°29' W 005°17'0 0.1
2017-Oct-16 02:00N 51°29' W 005°17'0 0.2
2017-Oct-16 01:15N 51°29' W 005°17'0 0.1
2017-Oct-16 00:54N 51°29' W 005°17'0 0.0
2017-Oct-16 00:30N 51°29' W 005°17'0 0.1
2017-Oct-16 00:00N 51°29' W 005°17'0 0.0
2017-Oct-15 23:24N 51°29' W 005°17'0 0.0
2017-Oct-15 21:48N 51°29' W 005°17'0 0.1
2017-Oct-15 21:24N 51°29' W 005°17'0 0.1
2017-Oct-15 21:00N 51°29' W 005°17'0 0.1
2017-Oct-15 20:24N 51°29' W 005°17'0 0.1
2017-Oct-15 19:57N 51°29' W 005°17'0 0.1
2017-Oct-15 19:30N 51°29' W 005°17'0 0.2
2017-Oct-15 19:00N 51°29' W 005°17'0 0.1
2017-Oct-15 18:30N 51°29' W 005°17'0 0.0
2017-Oct-15 18:00N 51°29' W 005°17'0 0.0
2017-Oct-15 17:30N 51°29' W 005°17'0 0.1
2017-Oct-15 17:00N 51°29' W 005°17'0 0.0
2017-Oct-15 16:30N 51°29' W 005°17'0 0.0
2017-Oct-15 16:00N 51°29' W 005°17'0 0.0
2017-Oct-15 15:27N 51°29' W 005°17'0 0.1
2017-Oct-15 15:00N 51°29' W 005°17'0 0.1
2017-Oct-15 14:00N 51°29' W 005°17'0 0.1
2017-Oct-15 13:24N 51°29' W 005°17'0 0.1
2017-Oct-15 13:00N 51°29' W 005°17'0 0.1
2017-Oct-15 12:18N 51°29' W 005°17'0 0.1
2017-Oct-15 12:00N 51°29' W 005°17'0 0.1
2017-Oct-15 11:30N 51°29' W 005°17'0 0.0
2017-Oct-15 11:00N 51°29' W 005°17'0 0.0
2017-Oct-15 09:48N 51°29' W 005°17'0 0.1
2017-Oct-15 09:30N 51°29' W 005°17'0 0.1
2017-Oct-15 08:48N 51°29' W 005°17'0 0.1
2017-Oct-15 08:30N 51°29' W 005°17'0 0.0
2017-Oct-15 08:00N 51°29' W 005°17'0 0.0
2017-Oct-15 07:21N 51°29' W 005°17'0 0.2
2017-Oct-15 06:54N 51°29' W 005°17'0 0.2
2017-Oct-15 06:30N 51°29' W 005°17'0 0.1
2017-Oct-15 06:00N 51°29' W 005°17'0 0.0
2017-Oct-15 05:30N 51°29' W 005°17'0 0.0
2017-Oct-15 05:00N 51°29' W 005°17'0 0.0
2017-Oct-15 04:30N 51°29' W 005°17'0 0.1
2017-Oct-15 04:00N 51°29' W 005°17'0 0.0
2017-Oct-15 03:30N 51°29' W 005°17'0 0.0
2017-Oct-15 02:57N 51°29' W 005°17'0 0.1
2017-Oct-15 02:30N 51°29' W 005°17'0 0.1
2017-Oct-15 02:00N 51°29' W 005°17'0 0.1
2017-Oct-15 01:30N 51°29' W 005°17'0 0.1
2017-Oct-14 23:57N 51°29' W 005°17'0 0.1
2017-Oct-14 23:30N 51°29' W 005°17'0 0.1
2017-Oct-14 23:00N 51°29' W 005°17'0 0.0
2017-Oct-14 22:30N 51°29' W 005°17'0 0.0
2017-Oct-14 21:51N 51°29' W 005°17'0 0.0
2017-Oct-14 21:12N 51°29' W 005°17'0 0.1
2017-Oct-14 20:57N 51°29' W 005°17'0 0.0
2017-Oct-14 20:18N 51°29' W 005°17'0 0.1
2017-Oct-14 20:00N 51°29' W 005°17'0 0.1
2017-Oct-14 19:27N 51°29' W 005°17'0 0.0
2017-Oct-14 19:00N 51°29' W 005°17'0 0.0
2017-Oct-14 18:27N 51°29' W 005°17'0 0.2
2017-Oct-14 17:57N 51°29' W 005°17'0 0.2
2017-Oct-14 17:24N 51°29' W 005°17'0 0.1
2017-Oct-14 17:00N 51°29' W 005°17'0 0.0
2017-Oct-14 16:30N 51°29' W 005°17'0 0.0
2017-Oct-14 15:57N 51°29' W 005°17'0 0.1
2017-Oct-14 15:21N 51°29' W 005°17'0 0.0
2017-Oct-14 15:00N 51°29' W 005°17'0 0.1
2017-Oct-14 14:30N 51°29' W 005°17'0 0.1
2017-Oct-14 13:57N 51°29' W 005°17'0 0.1
2017-Oct-14 13:30N 51°29' W 005°17'0 0.1
2017-Oct-14 12:33N 51°29' W 005°17'0 0.0
2017-Oct-14 11:48N 51°29' W 005°17'0 0.1
2017-Oct-14 11:27N 51°29' W 005°17'0 0.1
2017-Oct-14 11:00N 51°29' W 005°17'0 0.0
2017-Oct-14 10:30N 51°29' W 005°17'0 0.0
2017-Oct-14 08:33N 51°29' W 005°17'0 0.1
2017-Oct-14 08:21N 51°29' W 005°17'0 0.0
2017-Oct-14 07:54N 51°29' W 005°17'0 0.1
2017-Oct-14 07:15N 51°29' W 005°17'0 0.0
2017-Oct-14 06:57N 51°29' W 005°17'0 0.0
2017-Oct-14 06:27N 51°29' W 005°17'0 0.1
2017-Oct-14 06:00N 51°29' W 005°17'0 0.1
2017-Oct-14 04:42N 51°29' W 005°17'0 0.2
2017-Oct-14 04:30N 51°29' W 005°17'0 0.1
2017-Oct-14 04:00N 51°29' W 005°17'0 0.1
2017-Oct-14 03:27N 51°29' W 005°17'0 0.0
2017-Oct-14 03:00N 51°29' W 005°17'0 0.0
2017-Oct-14 02:30N 51°29' W 005°17'0 0.0
2017-Oct-14 02:00N 51°29' W 005°17'0 0.0
2017-Oct-14 01:30N 51°29' W 005°17'0 0.1
2017-Oct-14 00:06N 51°29' W 005°17'0 0.1
2017-Oct-14 00:00N 51°29' W 005°17'0 0.0
2017-Oct-13 23:24N 51°29' W 005°17'0 0.1
2017-Oct-13 23:00N 51°29' W 005°17'0 0.1
2017-Oct-13 22:27N 51°29' W 005°17'0 0.1
2017-Oct-13 21:54N 51°29' W 005°17'0 0.0
2017-Oct-13 21:24N 51°29' W 005°17'0 0.0
2017-Oct-13 21:00N 51°29' W 005°17'0 0.0
2017-Oct-13 20:30N 51°29' W 005°17'0 0.0
2017-Oct-13 20:00N 51°29' W 005°17'0 0.0
2017-Oct-13 19:24N 51°29' W 005°17'0 0.1
2017-Oct-13 19:00N 51°29' W 005°17'0 0.0
2017-Oct-13 18:12N 51°29' W 005°17'0 0.0
2017-Oct-13 17:57N 51°29' W 005°17'0 0.0
2017-Oct-13 17:30N 51°29' W 005°17'0 0.0
2017-Oct-13 15:33N 51°29' W 005°17'0 0.1
2017-Oct-13 15:24N 51°29' W 005°17'0 0.0
2017-Oct-13 14:18N 51°29' W 005°17'0 0.1
2017-Oct-13 14:00N 51°29' W 005°17'0 0.0
2017-Oct-13 13:30N 51°29' W 005°17'0 0.1
2017-Oct-13 13:00N 51°29' W 005°17'0 0.0
2017-Oct-13 10:00N 51°29' W 005°17'0 0.1
2017-Oct-13 09:30N 51°29' W 005°17'0 0.1
2017-Oct-13 09:00N 51°29' W 005°17'0 0.0
2017-Oct-13 08:27N 51°29' W 005°17'0 0.0
2017-Oct-13 07:54N 51°29' W 005°17'0 0.0
2017-Oct-13 07:18N 51°29' W 005°17'0 0.0
2017-Oct-13 06:48N 51°29' W 005°17'0 0.0
2017-Oct-13 06:30N 51°29' W 005°17'0 0.0
2017-Oct-13 05:57N 51°29' W 005°17'0 0.0
2017-Oct-13 05:30N 51°29' W 005°17'0 0.1
2017-Oct-13 03:42N 51°29' W 005°17'0 0.1
2017-Oct-13 03:30N 51°29' W 005°17'0 0.1
2017-Oct-13 03:00N 51°29' W 005°17'0 0.1
2017-Oct-13 02:27N 51°29' W 005°17'0 0.0
2017-Oct-13 02:00N 51°29' W 005°17'0 0.0
2017-Oct-13 01:30N 51°29' W 005°17'0 0.0
2017-Oct-13 01:00N 51°29' W 005°17'0 0.1
2017-Oct-13 00:30N 51°29' W 005°17'0 0.1
2017-Oct-13 00:00N 51°29' W 005°17'0 0.0
2017-Oct-12 23:30N 51°29' W 005°17'0 0.1
2017-Oct-12 23:00N 51°29' W 005°17'0 0.1
2017-Oct-12 21:00N 51°29' W 005°17'0 0.1
2017-Oct-12 20:30N 51°29' W 005°17'0 0.1
2017-Oct-12 20:00N 51°29' W 005°17'0 0.0
2017-Oct-12 19:30N 51°29' W 005°17'0 0.0
2017-Oct-12 18:48N 51°29' W 005°17'0 0.0
2017-Oct-12 18:30N 51°29' W 005°17'0 0.1
2017-Oct-12 18:00N 51°29' W 005°17'0 0.0
2017-Oct-12 15:24N 51°29' W 005°17'0 0.2
2017-Oct-12 14:54N 51°29' W 005°17'0 0.1
2017-Oct-12 14:30N 51°29' W 005°17'0 0.1
2017-Oct-12 14:00N 51°29' W 005°17'0 0.0
2017-Oct-12 13:27N 51°29' W 005°17'0 0.0
2017-Oct-12 12:51N 51°29' W 005°17'0 0.0
2017-Oct-12 12:30N 51°29' W 005°17'0 0.1
2017-Oct-12 11:54N 51°29' W 005°17'0 0.1
2017-Oct-12 11:30N 51°29' W 005°17'0 0.1
2017-Oct-12 11:00N 51°29' W 005°17'0 0.1
2017-Oct-12 10:11N 51°29' W 005°17'1 3.4
2017-Oct-12 10:00N 51°29' W 005°18'4 7.2
2017-Oct-12 09:30N 51°28' W 005°23'1 2.0
2017-Oct-12 09:00N 51°28' W 005°21'1 1.5
2017-Oct-12 08:31N 51°28' W 005°23'1 1.7
2017-Oct-12 08:01N 51°28' W 005°24'1 1.9
2017-Oct-12 07:30N 51°29' W 005°25'1 2.0
2017-Oct-12 07:01N 51°29' W 005°26'1 2.1
2017-Oct-12 06:31N 51°30' W 005°28'1 2.1
2017-Oct-12 06:00N 51°31' W 005°29'1 2.0
2017-Oct-12 05:31N 51°31' W 005°30'1 1.9
2017-Oct-12 05:01N 51°32' W 005°31'1 1.6
2017-Oct-12 04:31N 51°33' W 005°32'1 1.4
2017-Oct-12 04:01N 51°33' W 005°32'1 1.1
2017-Oct-12 03:30N 51°34' W 005°33'0 0.8
2017-Oct-12 03:00N 51°34' W 005°33'0 0.5
2017-Oct-12 02:31N 51°34' W 005°34'0 0.2
2017-Oct-12 02:00N 51°34' W 005°34'0 0.2
2017-Oct-12 01:31N 51°34' W 005°34'0 0.4
2017-Oct-12 01:01N 51°34' W 005°34'0 0.5
2017-Oct-12 00:31N 51°34' W 005°34'0 0.6
2017-Oct-12 00:01N 51°34' W 005°34'0 0.6
2017-Oct-11 23:31N 51°33' W 005°34'0 0.6
2017-Oct-11 23:00N 51°33' W 005°34'0 0.6
2017-Oct-11 22:30N 51°33' W 005°35'0 0.8
2017-Oct-11 22:01N 51°33' W 005°35'1 1.1
2017-Oct-11 21:31N 51°33' W 005°36'1 1.1
2017-Oct-11 21:00N 51°33' W 005°37'3 4.8
2017-Oct-11 20:28N 51°31' W 005°34'4 8.1
2017-Oct-11 20:00N 51°29' W 005°29'6 6.1
2017-Oct-11 18:58N 51°26' W 005°21'2 4.3
2017-Oct-11 18:28N 51°26' W 005°17'1 1.9
2017-Oct-11 17:58N 51°26' W 005°16'1 2.6
2017-Oct-11 17:30N 51°27' W 005°17'1 2.7
2017-Oct-11 17:00N 51°28' W 005°19'  

Dump ship's entire track history